Time;durP1;ratioP1;P1;durP2;ratioP2;P2;SDS_P1;SDS_P2;PMS_P1;PMS_P2;Temp;Humidity;BMP_temperature;BMP_pressure;BME280_temperature;BME280_humidity;BME280_pressure;Samples;Min_cycle;Max_cycle;Signal;HPM_P1;HPM_P2
2023/09/01 00:00:46;;;;;;;2.03;0.80;;;20.50;93.60;;;;;;5075650;28;20037;-76
2023/09/01 00:03:12;;;;;;;6.60;0.95;;;20.50;93.70;;;;;;5075404;28;20080;-76
2023/09/01 00:05:38;;;;;;;5.25;1.42;;;20.50;93.80;;;;;;5057309;28;20113;-75
2023/09/01 00:08:05;;;;;;;5.47;1.20;;;20.50;93.90;;;;;;5075368;28;20397;-76
2023/09/01 00:10:31;;;;;;;4.60;1.00;;;20.50;94.00;;;;;;5075176;28;20516;-75
2023/09/01 00:12:57;;;;;;;8.60;1.45;;;20.50;93.90;;;;;;5057280;28;20399;-76
2023/09/01 00:15:23;;;;;;;4.00;1.58;;;20.40;94.00;;;;;;5057432;28;20028;-76
2023/09/01 00:17:49;;;;;;;5.65;1.10;;;20.40;94.10;;;;;;5075329;28;20035;-76
2023/09/01 00:20:15;;;;;;;2.28;1.10;;;20.40;94.10;;;;;;5075202;28;20037;-76
2023/09/01 00:22:41;;;;;;;2.63;0.85;;;20.40;94.10;;;;;;5074868;28;20098;-76
2023/09/01 00:25:07;;;;;;;4.53;1.30;;;20.40;94.30;;;;;;5075174;28;20491;-76
2023/09/01 00:27:33;;;;;;;5.85;1.10;;;20.40;94.50;;;;;;5057187;28;20036;-75
2023/09/01 00:29:58;;;;;;;5.88;1.20;;;20.40;94.60;;;;;;5074420;28;20040;-76
2023/09/01 00:32:24;;;;;;;5.22;1.20;;;20.30;94.70;;;;;;5074525;28;20082;-75
2023/09/01 00:34:56;;;;;;;4.13;1.30;;;20.30;94.80;;;;;;5074550;28;20464;-76
2023/09/01 00:37:23;;;;;;;3.00;1.20;;;20.30;94.90;;;;;;5075072;28;20078;-75
2023/09/01 00:39:49;;;;;;;6.03;1.30;;;20.30;95.00;;;;;;5074627;28;20534;-76
2023/09/01 00:42:15;;;;;;;8.13;1.00;;;20.30;95.20;;;;;;5074836;28;20032;-75
2023/09/01 00:44:40;;;;;;;3.63;1.10;;;20.30;95.30;;;;;;5073689;28;20048;-76
2023/09/01 00:47:06;;;;;;;6.47;1.38;;;20.30;95.30;;;;;;5074313;28;20047;-76
2023/09/01 00:49:35;;;;;;;6.20;1.10;;;20.30;95.20;;;;;;5074489;28;20068;-75
2023/09/01 00:52:01;;;;;;;2.35;1.00;;;20.30;95.40;;;;;;5074300;28;20042;-76
2023/09/01 00:54:27;;;;;;;2.80;1.08;;;20.20;95.50;;;;;;5074313;28;20045;-76
2023/09/01 00:56:55;;;;;;;2.80;1.00;;;20.20;95.60;;;;;;5074294;28;20051;-76
2023/09/01 00:59:21;;;;;;;3.00;1.10;;;20.20;95.70;;;;;;5071726;28;20052;-77
2023/09/01 01:01:48;;;;;;;8.02;1.38;;;20.20;95.80;;;;;;5071547;28;20400;-76
2023/09/01 01:04:15;;;;;;;1.50;0.80;;;20.10;95.80;;;;;;5071810;28;20531;-76
2023/09/01 01:07:33;;;;;;;5.32;1.00;;;20.10;95.90;;;;;;5074011;28;20078;-76
2023/09/01 01:10:11;;;;;;;3.53;0.82;;;20.10;95.90;;;;;;5070015;28;20028;-76
2023/09/01 01:12:52;;;;;;;7.57;1.08;;;20.10;95.80;;;;;;5073860;28;20067;-75
2023/09/01 01:15:20;;;;;;;2.83;0.98;;;20.00;95.80;;;;;;5056073;28;20028;-75
2023/09/01 01:17:47;;;;;;;3.03;1.00;;;20.00;96.00;;;;;;5055827;28;20037;-75
2023/09/01 01:20:24;;;;;;;2.67;1.00;;;20.00;96.00;;;;;;5073568;28;20522;-75
2023/09/01 01:23:06;;;;;;;2.78;1.00;;;20.00;96.00;;;;;;5074039;28;20039;-76
2023/09/01 01:25:32;;;;;;;3.75;0.90;;;20.00;96.10;;;;;;5073931;28;20055;-76
2023/09/01 01:28:05;;;;;;;4.50;1.10;;;20.00;96.20;;;;;;5073439;28;20108;-76
2023/09/01 01:30:30;;;;;;;7.30;1.10;;;20.00;96.10;;;;;;5073643;28;20465;-76
2023/09/01 01:32:56;;;;;;;5.78;0.90;;;20.00;96.10;;;;;;5073751;28;20024;-76
2023/09/01 01:35:32;;;;;;;6.28;0.88;;;20.00;96.20;;;;;;5072546;28;20554;-76
2023/09/01 01:38:24;;;;;;;3.88;1.23;;;20.00;96.20;;;;;;5073586;28;20373;-76
2023/09/01 01:40:56;;;;;;;3.25;0.85;;;20.00;96.10;;;;;;5073502;28;20429;-76
2023/09/01 01:43:23;;;;;;;6.75;1.15;;;20.00;96.10;;;;;;5073285;28;20059;-76
2023/09/01 01:45:50;;;;;;;3.80;0.82;;;20.00;96.00;;;;;;5073417;28;20493;-76
2023/09/01 01:48:15;;;;;;;6.72;1.65;;;20.00;96.00;;;;;;5073571;28;20476;-76
2023/09/01 01:50:41;;;;;;;4.72;0.85;;;20.00;96.00;;;;;;5055669;28;20039;-76
2023/09/01 01:53:08;;;;;;;3.72;0.80;;;20.00;96.00;;;;;;5073347;28;20036;-76
2023/09/01 01:55:34;;;;;;;3.38;0.70;;;20.00;95.90;;;;;;5073387;28;20056;-75
2023/09/01 01:58:00;;;;;;;2.85;1.00;;;20.00;95.80;;;;;;5073487;28;20389;-75
2023/09/01 02:00:27;;;;;;;1.73;0.90;;;20.00;95.90;;;;;;5055575;28;20524;-76
2023/09/01 02:02:53;;;;;;;1.25;0.90;;;20.00;95.90;;;;;;5073278;28;20115;-76
2023/09/01 02:05:19;;;;;;;1.05;0.88;;;19.90;95.90;;;;;;5072036;28;20563;-76
2023/09/01 02:07:45;;;;;;;3.28;1.00;;;19.90;96.00;;;;;;5072692;28;20116;-76
2023/09/01 02:10:11;;;;;;;5.22;1.00;;;19.90;96.00;;;;;;5072866;28;20369;-78
2023/09/01 02:12:37;;;;;;;2.15;0.80;;;19.90;96.00;;;;;;5073350;28;20029;-75
2023/09/01 02:15:03;;;;;;;10.35;0.98;;;19.90;96.10;;;;;;5073285;28;20029;-76
2023/09/01 02:17:29;;;;;;;5.32;0.80;;;19.90;96.20;;;;;;5073035;28;20531;-76
2023/09/01 02:19:58;;;;;;;7.05;1.00;;;19.80;96.20;;;;;;5073079;28;20538;-76
2023/09/01 02:22:23;;;;;;;4.25;1.10;;;19.90;96.30;;;;;;5072931;28;20033;-76
2023/09/01 02:24:49;;;;;;;3.13;1.70;;;19.90;96.10;;;;;;5071726;28;20099;-76
2023/09/01 02:27:15;;;;;;;2.67;0.80;;;19.80;96.00;;;;;;5072848;28;20107;-75
2023/09/01 02:29:41;;;;;;;1.75;0.70;;;19.80;95.90;;;;;;5072693;28;20052;-76
2023/09/01 02:32:07;;;;;;;4.45;1.00;;;19.80;96.10;;;;;;5054721;28;20058;-76
2023/09/01 02:34:33;;;;;;;2.63;0.90;;;19.80;96.30;;;;;;5072787;28;20041;-75
2023/09/01 02:36:59;;;;;;;4.85;0.90;;;19.80;96.40;;;;;;5072685;28;20031;-76
2023/09/01 02:39:25;;;;;;;5.18;1.10;;;19.80;96.50;;;;;;5072916;28;20052;-75
2023/09/01 02:41:51;;;;;;;3.55;0.90;;;19.80;96.50;;;;;;5072705;28;20484;-76
2023/09/01 02:44:16;;;;;;;3.90;1.00;;;19.70;96.60;;;;;;5072575;28;20040;-76
2023/09/01 02:46:42;;;;;;;2.60;1.00;;;19.80;96.60;;;;;;5072583;28;20040;-76
2023/09/01 02:49:09;;;;;;;3.60;1.00;;;19.70;96.60;;;;;;5072475;28;20488;-76
2023/09/01 02:51:35;;;;;;;3.17;0.98;;;19.60;96.50;;;;;;5072345;28;20060;-76
2023/09/01 02:54:01;;;;;;;6.97;1.20;;;19.70;96.60;;;;;;5072699;28;20060;-76
2023/09/01 02:56:26;;;;;;;4.70;1.17;;;19.70;96.70;;;;;;5072441;28;20043;-76
2023/09/01 02:58:52;;;;;;;1.80;0.90;;;19.60;96.80;;;;;;5072435;28;20100;-75
2023/09/01 03:01:18;;;;;;;2.47;1.10;;;19.70;96.80;;;;;;5039668;28;20573;-76
2023/09/01 03:03:44;;;;;;;3.17;1.08;;;19.70;96.90;;;;;;5032216;28;20037;-76
2023/09/01 03:06:10;;;;;;;1.80;0.93;;;19.70;96.90;;;;;;5032263;28;20456;-75
2023/09/01 03:08:36;;;;;;;4.55;1.30;;;19.70;97.00;;;;;;5032367;28;20474;-75
2023/09/01 03:11:03;;;;;;;4.25;2.10;;;19.70;97.00;;;;;;5032561;28;20390;-76
2023/09/01 03:13:29;;;;;;;3.13;1.20;;;19.70;97.00;;;;;;5032631;28;20045;-76
2023/09/01 03:15:56;;;;;;;2.35;1.10;;;19.70;97.10;;;;;;5014930;28;20041;-76
2023/09/01 03:18:23;;;;;;;4.60;1.27;;;19.70;97.10;;;;;;5014667;28;20481;-76
2023/09/01 03:20:53;;;;;;;2.78;0.82;;;19.70;97.40;;;;;;5014424;28;20029;-75
2023/09/01 03:23:20;;;;;;;5.40;1.52;;;19.70;97.10;;;;;;5032167;28;20021;-76
2023/09/01 03:25:53;;;;;;;3.30;0.90;;;19.70;97.20;;;;;;5032183;28;20049;-77
2023/09/01 03:28:19;;;;;;;6.68;1.27;;;19.70;97.20;;;;;;5014869;28;20515;-75
2023/09/01 03:30:44;;;;;;;4.45;0.80;;;19.70;97.00;;;;;;5032423;28;20030;-75
2023/09/01 03:33:10;;;;;;;2.22;1.20;;;19.70;96.90;;;;;;5032048;28;20037;-76
2023/09/01 03:35:37;;;;;;;2.15;0.90;;;19.70;96.90;;;;;;5014742;28;20087;-76
2023/09/01 03:38:03;;;;;;;2.20;1.00;;;19.70;96.80;;;;;;5032520;28;20061;-76
2023/09/01 03:40:29;;;;;;;4.95;1.10;;;19.70;96.80;;;;;;5032318;28;20091;-76
2023/09/01 03:42:55;;;;;;;2.60;0.95;;;19.70;96.90;;;;;;5032303;28;20030;-76
2023/09/01 03:45:20;;;;;;;8.18;1.17;;;19.70;96.80;;;;;;5032153;28;20468;-76
2023/09/01 03:47:46;;;;;;;3.30;1.05;;;19.60;96.70;;;;;;5031772;28;20034;-76
2023/09/01 03:50:12;;;;;;;4.03;1.15;;;19.60;96.80;;;;;;5031898;28;20108;-76
2023/09/01 03:52:38;;;;;;;4.50;1.10;;;19.50;96.90;;;;;;5032139;28;20068;-76
2023/09/01 03:55:04;;;;;;;4.10;1.20;;;19.60;97.10;;;;;;5032408;28;20052;-77
2023/09/01 03:57:30;;;;;;;4.00;0.90;;;19.60;97.10;;;;;;5032092;28;20455;-76
2023/09/01 03:59:56;;;;;;;7.00;0.95;;;19.60;97.10;;;;;;5035642;28;20049;-75
2023/09/01 04:02:21;;;;;;;5.28;1.50;;;19.60;97.10;;;;;;5035585;28;20359;-76
2023/09/01 04:04:47;;;;;;;3.42;0.93;;;19.60;97.10;;;;;;5035014;28;20057;-76
2023/09/01 04:07:13;;;;;;;1.05;0.90;;;19.50;97.10;;;;;;5035650;28;20056;-76
2023/09/01 04:09:39;;;;;;;7.25;2.08;;;19.60;97.20;;;;;;5035535;28;20033;-75
2023/09/01 04:12:05;;;;;;;2.45;1.15;;;19.50;97.20;;;;;;5035313;28;20034;-76
2023/09/01 04:14:31;;;;;;;2.67;1.10;;;19.50;97.50;;;;;;5035266;28;20497;-76
2023/09/01 04:16:57;;;;;;;2.13;0.70;;;19.50;97.30;;;;;;5035127;28;20075;-75
2023/09/01 04:19:23;;;;;;;3.10;1.20;;;19.50;97.30;;;;;;5035720;28;20033;-76
2023/09/01 04:21:48;;;;;;;2.80;1.00;;;19.50;97.40;;;;;;5035691;28;20370;-76
2023/09/01 04:24:14;;;;;;;3.85;1.55;;;19.50;97.50;;;;;;5035471;28;20049;-75
2023/09/01 04:26:40;;;;;;;2.95;1.20;;;19.50;97.50;;;;;;5035360;28;20109;-75
2023/09/01 04:29:06;;;;;;;2.75;1.10;;;19.50;97.50;;;;;;5035359;28;20489;-75
2023/09/01 04:31:32;;;;;;;4.85;1.20;;;19.60;97.50;;;;;;5017116;28;20032;-75
2023/09/01 04:33:58;;;;;;;4.93;1.20;;;19.60;97.50;;;;;;5035289;28;20451;-76
2023/09/01 04:36:24;;;;;;;6.60;1.27;;;19.60;97.50;;;;;;5047383;28;20476;-76
2023/09/01 04:38:50;;;;;;;5.75;1.30;;;19.50;97.40;;;;;;5075214;28;20044;-76
2023/09/01 04:41:16;;;;;;;7.50;1.23;;;19.60;97.50;;;;;;5056722;28;20033;-75
2023/09/01 04:43:42;;;;;;;3.05;1.17;;;19.50;97.50;;;;;;5056446;28;20075;-75
2023/09/01 04:46:08;;;;;;;1.77;1.25;;;19.50;97.50;;;;;;5073003;28;20080;-75
2023/09/01 04:48:37;;;;;;;2.65;1.15;;;19.50;97.50;;;;;;5074636;28;20036;-75
2023/09/01 04:51:03;;;;;;;5.03;1.30;;;19.50;97.60;;;;;;5074755;28;20078;-76
2023/09/01 04:53:30;;;;;;;2.50;1.10;;;19.50;97.70;;;;;;5074738;28;20033;-75
2023/09/01 04:55:56;;;;;;;5.47;1.20;;;19.50;97.70;;;;;;5074707;28;20361;-76
2023/09/01 04:58:21;;;;;;;1.23;0.88;;;19.50;97.70;;;;;;5074548;28;20066;-76
2023/09/01 05:00:51;;;;;;;4.65;1.05;;;19.50;97.70;;;;;;5074362;28;20060;-76
2023/09/01 05:03:17;;;;;;;6.07;1.17;;;19.50;97.70;;;;;;5056963;28;20040;-76
2023/09/01 05:05:43;;;;;;;6.15;1.38;;;19.50;97.90;;;;;;5054135;28;20497;-75
2023/09/01 05:08:09;;;;;;;2.35;1.08;;;19.60;97.60;;;;;;5054423;28;20045;-75
2023/09/01 05:10:34;;;;;;;7.15;1.05;;;19.50;97.60;;;;;;5051177;28;20033;-76
2023/09/01 05:13:00;;;;;;;4.75;1.25;;;19.60;97.60;;;;;;5034078;28;20064;-75
2023/09/01 05:15:26;;;;;;;3.47;1.50;;;19.50;97.60;;;;;;5034115;28;20033;-75
2023/09/01 05:17:52;;;;;;;3.95;1.20;;;19.50;97.60;;;;;;5034285;28;20025;-76
2023/09/01 05:20:20;;;;;;;5.25;1.30;;;19.50;97.60;;;;;;5035676;28;20515;-76
2023/09/01 05:22:46;;;;;;;3.65;1.10;;;19.50;97.70;;;;;;5035927;28;20033;-77
2023/09/01 05:25:12;;;;;;;3.55;1.27;;;19.50;97.80;;;;;;5033113;28;20133;-75
2023/09/01 05:27:38;;;;;;;3.75;1.20;;;19.60;97.80;;;;;;5032849;28;20084;-75
2023/09/01 05:30:04;;;;;;;2.65;1.10;;;19.60;97.80;;;;;;5034099;28;20040;-75
2023/09/01 05:32:30;;;;;;;2.55;1.20;;;19.60;97.80;;;;;;5032592;28;20083;-76
2023/09/01 05:34:56;;;;;;;3.17;1.50;;;19.60;97.80;;;;;;5034167;28;20038;-76
2023/09/01 05:37:21;;;;;;;3.45;1.25;;;19.60;97.90;;;;;;5033591;28;20033;-75
2023/09/01 05:39:47;;;;;;;3.92;1.55;;;19.60;98.00;;;;;;5034169;28;20116;-76
2023/09/01 05:42:14;;;;;;;6.57;1.30;;;19.60;98.10;;;;;;5034005;28;20546;-76
2023/09/01 05:44:41;;;;;;;3.78;1.40;;;19.60;98.10;;;;;;5033701;28;20124;-75
2023/09/01 05:47:06;;;;;;;7.13;1.38;;;19.60;98.20;;;;;;5033914;28;20033;-76
2023/09/01 05:49:33;;;;;;;6.75;1.80;;;19.60;98.20;;;;;;5033978;28;20034;-75
2023/09/01 05:51:59;;;;;;;4.13;1.10;;;19.60;98.20;;;;;;5049097;28;20034;-76
2023/09/01 05:54:26;;;;;;;5.97;1.42;;;19.60;98.30;;;;;;5033955;28;20033;-76
2023/09/01 05:56:52;;;;;;;3.50;1.13;;;19.70;98.40;;;;;;5033446;28;20041;-76
2023/09/01 05:59:18;;;;;;;2.00;1.13;;;19.60;98.40;;;;;;5033767;28;20022;-76
2023/09/01 06:01:44;;;;;;;4.70;1.17;;;19.70;98.50;;;;;;5033326;28;20038;-76
2023/09/01 06:04:10;;;;;;;2.90;1.20;;;19.70;98.50;;;;;;5051782;28;20385;-74
2023/09/01 06:06:36;;;;;;;3.03;1.40;;;19.70;98.50;;;;;;5055183;28;20044;-76
2023/09/01 06:09:05;;;;;;;2.40;1.42;;;19.70;98.50;;;;;;5072655;28;20049;-76
2023/09/01 06:11:35;;;;;;;3.85;1.20;;;19.70;98.60;;;;;;5071831;28;20468;-76
2023/09/01 06:14:03;;;;;;;5.13;1.67;;;19.70;98.60;;;;;;5071112;28;20184;-75
2023/09/01 06:16:29;;;;;;;5.70;1.30;;;19.70;98.70;;;;;;5073054;28;20047;-76
2023/09/01 06:18:59;;;;;;;5.03;1.20;;;19.70;98.70;;;;;;5073263;28;20021;-76
2023/09/01 06:21:25;;;;;;;6.68;1.30;;;19.80;98.70;;;;;;5072977;28;20037;-77
2023/09/01 06:23:51;;;;;;;4.32;1.50;;;19.80;98.70;;;;;;5072678;28;20476;-73
2023/09/01 06:26:17;;;;;;;5.22;1.65;;;19.80;98.60;;;;;;5072271;28;20048;-74
2023/09/01 06:28:45;;;;;;;2.67;1.20;;;19.80;98.60;;;;;;5069465;28;20029;-74
2023/09/01 06:31:13;;;;;;;6.38;1.30;;;19.80;98.60;;;;;;5070642;28;20097;-73
2023/09/01 06:33:43;;;;;;;2.85;1.15;;;19.80;98.50;;;;;;5072279;28;20061;-73
2023/09/01 06:36:10;;;;;;;1.80;1.08;;;19.80;98.40;;;;;;5072376;28;20145;-73
2023/09/01 06:38:36;;;;;;;6.22;1.30;;;19.80;98.40;;;;;;5054064;28;20119;-73
2023/09/01 06:41:03;;;;;;;1.48;1.13;;;19.80;98.40;;;;;;5072635;28;20036;-73
2023/09/01 06:43:30;;;;;;;2.50;1.02;;;19.80;98.40;;;;;;5073186;28;20487;-73
2023/09/01 06:45:56;;;;;;;5.10;1.15;;;19.80;98.30;;;;;;5072892;28;20041;-73
2023/09/01 06:48:22;;;;;;;6.80;1.30;;;19.80;98.30;;;;;;5072779;28;20028;-73
2023/09/01 06:50:48;;;;;;;2.20;1.10;;;19.80;98.10;;;;;;5072832;28;20453;-73
2023/09/01 06:53:14;;;;;;;5.90;1.05;;;19.80;98.00;;;;;;5072967;28;20033;-73
2023/09/01 06:55:39;;;;;;;4.82;1.20;;;19.80;98.00;;;;;;5054984;28;20029;-73
2023/09/01 06:58:05;;;;;;;6.05;1.40;;;19.80;98.00;;;;;;5072793;28;20032;-73
2023/09/01 07:00:32;;;;;;;4.03;1.30;;;19.80;98.00;;;;;;5072516;28;20094;-73
2023/09/01 07:02:58;;;;;;;8.18;1.45;;;19.80;98.00;;;;;;5072848;28;20104;-73
2023/09/01 07:05:23;;;;;;;4.55;1.50;;;19.90;98.00;;;;;;5072890;28;20045;-72
2023/09/01 07:07:50;;;;;;;4.57;1.30;;;19.90;98.10;;;;;;5072816;28;20392;-74
2023/09/01 07:10:16;;;;;;;3.13;1.15;;;19.90;98.10;;;;;;5072655;28;20040;-74
2023/09/01 07:12:43;;;;;;;3.35;1.58;;;19.90;98.00;;;;;;5072446;28;20056;-73
2023/09/01 07:15:09;;;;;;;4.85;1.30;;;19.90;98.00;;;;;;5072578;28;20086;-73
2023/09/01 07:17:35;;;;;;;5.45;1.30;;;19.90;98.00;;;;;;5072594;28;20039;-72
2023/09/01 07:20:03;;;;;;;7.57;1.58;;;19.90;98.00;;;;;;5072663;28;20040;-72
2023/09/01 07:22:28;;;;;;;6.57;1.40;;;19.90;98.00;;;;;;5071112;28;20068;-74
2023/09/01 07:24:54;;;;;;;4.00;1.42;;;19.80;98.10;;;;;;5072614;28;20036;-74
2023/09/01 07:27:20;;;;;;;4.13;1.50;;;19.90;98.10;;;;;;5072445;28;20025;-73
2023/09/01 07:29:48;;;;;;;14.07;2.13;;;19.90;98.10;;;;;;5071188;28;20037;-75
2023/09/01 07:32:15;;;;;;;5.50;1.58;;;19.90;98.10;;;;;;5072277;28;20496;-75
2023/09/01 07:34:41;;;;;;;3.92;1.70;;;19.90;98.10;;;;;;5075667;28;20028;-74
2023/09/01 07:37:06;;;;;;;6.78;2.03;;;19.90;98.00;;;;;;5076109;28;20028;-73
2023/09/01 07:39:32;;;;;;;3.83;1.45;;;20.00;98.10;;;;;;5076454;28;20036;-74
2023/09/01 07:41:58;;;;;;;10.05;1.63;;;20.00;98.10;;;;;;5076633;28;20110;-75
2023/09/01 07:44:24;;;;;;;6.82;1.63;;;20.00;98.10;;;;;;5058317;28;20055;-76
2023/09/01 07:46:50;;;;;;;8.27;1.60;;;20.00;98.10;;;;;;5076532;28;20044;-73
2023/09/01 07:49:16;;;;;;;5.70;1.60;;;20.00;98.00;;;;;;5075996;28;20055;-74
2023/09/01 07:51:43;;;;;;;6.72;2.10;;;20.00;98.10;;;;;;5058257;28;20109;-75
2023/09/01 07:54:09;;;;;;;2.33;1.35;;;20.00;98.10;;;;;;5076133;28;20056;-76
2023/09/01 07:56:34;;;;;;;11.48;2.30;;;20.10;98.20;;;;;;5076041;28;20428;-74
2023/09/01 07:59:01;;;;;;;6.10;1.67;;;20.10;98.20;;;;;;5075912;28;20047;-74
2023/09/01 08:01:28;;;;;;;4.07;1.40;;;20.10;98.10;;;;;;5075869;28;20468;-74
2023/09/01 08:03:54;;;;;;;4.75;1.40;;;20.20;98.10;;;;;;5075802;28;20431;-73
2023/09/01 08:06:20;;;;;;;6.68;1.58;;;20.20;98.10;;;;;;5075695;28;20051;-76
2023/09/01 08:08:45;;;;;;;4.53;1.10;;;20.20;98.00;;;;;;5075536;28;20028;-74
2023/09/01 08:11:11;;;;;;;5.90;1.50;;;20.30;98.00;;;;;;5072847;28;20044;-74
2023/09/01 08:13:37;;;;;;;3.63;1.30;;;20.30;98.00;;;;;;5054157;28;20384;-75
2023/09/01 08:16:02;;;;;;;5.60;1.52;;;20.40;97.90;;;;;;5054464;28;20036;-74
2023/09/01 08:18:28;;;;;;;3.25;1.40;;;20.40;97.90;;;;;;5073476;28;20029;-75
2023/09/01 08:20:54;;;;;;;2.85;1.30;;;20.50;97.80;;;;;;5074050;28;20043;-75
2023/09/01 08:23:21;;;;;;;8.85;1.30;;;20.50;97.80;;;;;;5075587;28;20043;-75
2023/09/01 08:25:48;;;;;;;5.75;1.00;;;20.60;97.70;;;;;;5075516;28;20044;-74
2023/09/01 08:28:14;;;;;;;2.47;1.20;;;20.70;97.70;;;;;;5075403;28;20025;-75
2023/09/01 08:30:40;;;;;;;5.43;1.20;;;20.80;97.80;;;;;;5074133;28;20041;-76
2023/09/01 08:33:05;;;;;;;2.40;1.13;;;20.90;97.70;;;;;;5075307;28;20083;-75
2023/09/01 08:35:31;;;;;;;3.55;1.10;;;21.00;97.60;;;;;;5075516;28;20055;-75
2023/09/01 08:37:57;;;;;;;2.63;1.13;;;21.10;97.60;;;;;;5057356;28;20040;-74
2023/09/01 08:40:23;;;;;;;2.33;1.10;;;21.10;97.40;;;;;;5075031;28;20029;-75
2023/09/01 08:42:50;;;;;;;3.55;1.20;;;21.20;97.30;;;;;;5075361;28;20041;-74
2023/09/01 08:45:19;;;;;;;3.55;1.00;;;21.20;97.20;;;;;;5074892;28;20075;-74
2023/09/01 08:47:46;;;;;;;2.97;1.20;;;21.20;97.20;;;;;;5075109;28;20033;-74
2023/09/01 08:50:14;;;;;;;5.07;1.20;;;21.30;97.30;;;;;;5074770;28;20040;-74
2023/09/01 08:52:44;;;;;;;3.08;0.90;;;21.30;97.20;;;;;;5075082;28;20162;-75
2023/09/01 08:55:13;;;;;;;3.25;1.30;;;21.40;97.10;;;;;;5075096;28;20044;-75
2023/09/01 08:57:39;;;;;;;6.07;1.00;;;21.50;97.00;;;;;;5057033;28;20437;-75
2023/09/01 09:00:09;;;;;;;1.73;1.05;;;21.60;96.80;;;;;;5074942;28;20075;-75
2023/09/01 09:02:41;;;;;;;2.50;0.95;;;21.60;96.60;;;;;;5074942;28;20517;-76
2023/09/01 09:05:11;;;;;;;3.47;1.00;;;21.70;96.60;;;;;;5074381;28;20169;-76
2023/09/01 09:07:37;;;;;;;4.18;1.27;;;21.70;96.60;;;;;;5074859;28;20020;-75
2023/09/01 09:10:06;;;;;;;3.55;0.80;;;21.80;96.50;;;;;;5074782;28;20396;-74
2023/09/01 09:12:41;;;;;;;3.80;0.82;;;21.90;96.50;;;;;;5074634;28;20389;-74
2023/09/01 09:15:08;;;;;;;4.20;1.30;;;21.90;96.40;;;;;;5056529;28;20119;-76
2023/09/01 09:17:46;;;;;;;4.07;0.88;;;22.00;96.30;;;;;;5074706;28;20365;-74
2023/09/01 09:20:14;;;;;;;9.07;1.10;;;22.00;96.30;;;;;;5074765;28;20070;-75
2023/09/01 09:22:48;;;;;;;3.42;1.10;;;22.10;96.20;;;;;;5074749;28;20074;-75
2023/09/01 09:25:25;;;;;;;2.15;0.80;;;22.20;96.20;;;;;;5074254;28;20496;-74
2023/09/01 09:27:51;;;;;;;3.22;0.80;;;22.20;96.10;;;;;;5074329;28;20039;-75
2023/09/01 09:30:17;;;;;;;2.80;0.80;;;22.30;96.10;;;;;;5056086;28;20036;-75
2023/09/01 09:32:43;;;;;;;1.88;0.80;;;22.40;96.00;;;;;;5056190;28;20091;-75
2023/09/01 09:35:14;;;;;;;3.40;1.08;;;22.50;95.80;;;;;;5074081;28;20083;-76
2023/09/01 09:37:41;;;;;;;2.28;0.93;;;22.60;95.90;;;;;;5074298;28;20123;-76
2023/09/01 09:40:15;;;;;;;3.78;1.00;;;22.60;95.60;;;;;;5074123;28;20041;-76
2023/09/01 09:42:43;;;;;;;5.80;1.15;;;22.70;95.50;;;;;;5073863;28;20028;-75
2023/09/01 09:45:34;;;;;;;4.32;1.00;;;22.80;94.90;;;;;;5073318;28;20051;-76
2023/09/01 09:48:05;;;;;;;2.80;1.00;;;22.80;94.90;;;;;;5073788;28;20451;-76
2023/09/01 09:50:32;;;;;;;5.60;0.90;;;22.90;94.80;;;;;;5073673;28;20036;-76
2023/09/01 09:52:59;;;;;;;1.88;0.88;;;22.90;94.70;;;;;;5073962;28;20476;-76
2023/09/01 09:55:33;;;;;;;3.92;1.00;;;23.00;94.50;;;;;;5073158;28;20087;-75
2023/09/01 09:58:09;;;;;;;1.83;0.82;;;23.00;94.40;;;;;;5073657;28;20024;-75
2023/09/01 10:00:56;;;;;;;2.75;0.88;;;23.10;94.60;;;;;;5073515;28;20041;-75
2023/09/01 10:03:25;;;;;;;2.70;0.98;;;23.20;94.60;;;;;;5073246;28;20048;-75
2023/09/01 10:05:51;;;;;;;4.05;1.20;;;23.20;94.40;;;;;;5073523;28;20044;-75
2023/09/01 10:08:23;;;;;;;2.90;0.98;;;23.30;93.80;;;;;;5073445;28;20508;-74
2023/09/01 10:10:49;;;;;;;2.90;1.35;;;23.30;93.70;;;;;;5055550;28;20039;-74
2023/09/01 10:13:15;;;;;;;4.35;1.40;;;23.30;93.70;;;;;;5055553;28;20028;-74
2023/09/01 10:15:42;;;;;;;2.55;1.10;;;23.30;93.80;;;;;;5055661;28;20060;-74
2023/09/01 10:18:09;;;;;;;3.17;1.13;;;23.30;94.00;;;;;;5073248;28;20028;-74
2023/09/01 10:20:43;;;;;;;2.10;1.00;;;23.40;93.80;;;;;;5064095;28;20037;-74
2023/09/01 10:23:09;;;;;;;3.55;1.10;;;23.40;93.80;;;;;;5035290;28;20029;-74
2023/09/01 10:25:35;;;;;;;3.60;1.30;;;23.40;93.70;;;;;;5053083;28;20048;-74
2023/09/01 10:28:13;;;;;;;6.60;1.10;;;23.50;94.10;;;;;;5053390;28;20032;-74
2023/09/01 10:30:45;;;;;;;2.88;1.00;;;23.50;94.00;;;;;;5035536;28;20033;-74
2023/09/01 10:33:15;;;;;;;3.05;1.10;;;23.70;94.10;;;;;;5053222;28;20041;-74
2023/09/01 10:35:47;;;;;;;2.33;1.10;;;23.80;93.60;;;;;;5053058;28;20242;-76
2023/09/01 10:38:17;;;;;;;6.93;1.27;;;23.80;93.40;;;;;;5052648;28;20397;-74
2023/09/01 10:40:48;;;;;;;2.03;1.00;;;23.80;93.10;;;;;;5052939;28;20028;-75
2023/09/01 10:43:44;;;;;;;4.18;1.10;;;23.70;93.10;;;;;;5052840;28;20116;-74
2023/09/01 10:46:18;;;;;;;6.28;1.92;;;23.70;93.40;;;;;;5052752;28;20131;-74
2023/09/01 10:48:58;;;;;;;3.22;1.27;;;23.70;93.40;;;;;;5052958;28;20025;-74
2023/09/01 10:51:28;;;;;;;7.45;1.10;;;23.70;93.60;;;;;;5052869;28;20029;-73
2023/09/01 10:53:56;;;;;;;5.13;1.30;;;23.80;94.00;;;;;;5052669;28;20041;-73
2023/09/01 10:56:22;;;;;;;4.55;1.35;;;23.90;93.60;;;;;;5052435;28;20041;-72
2023/09/01 10:58:49;;;;;;;3.97;1.25;;;24.00;93.60;;;;;;5053067;28;20378;-73
2023/09/01 11:01:30;;;;;;;3.72;1.25;;;24.20;93.20;;;;;;5052725;28;20124;-73
2023/09/01 11:04:16;;;;;;;3.63;1.40;;;24.30;92.20;;;;;;5034532;28;20057;-73
2023/09/01 11:06:59;;;;;;;6.60;1.20;;;24.40;91.80;;;;;;5052576;28;20041;-73
2023/09/01 11:09:34;;;;;;;3.50;1.10;;;24.50;91.80;;;;;;5056880;28;20067;-73
2023/09/01 11:12:00;;;;;;;4.93;1.90;;;24.50;91.60;;;;;;5057016;28;20044;-73
2023/09/01 11:14:25;;;;;;;3.10;1.30;;;24.50;91.30;;;;;;5053985;28;20033;-73
2023/09/01 11:16:51;;;;;;;5.22;1.40;;;24.50;91.50;;;;;;5054102;28;20068;-72
2023/09/01 11:19:17;;;;;;;5.63;1.55;;;24.50;91.50;;;;;;5056096;28;20029;-72
2023/09/01 11:21:42;;;;;;;6.38;1.30;;;24.50;91.50;;;;;;5056509;28;20115;-73
2023/09/01 11:24:08;;;;;;;9.00;1.55;;;24.40;91.50;;;;;;5056147;28;20041;-73
2023/09/01 11:26:37;;;;;;;5.20;1.52;;;24.40;91.80;;;;;;5056179;28;20033;-72
2023/09/01 11:29:08;;;;;;;6.40;2.22;;;24.30;91.70;;;;;;5056553;28;20537;-73
2023/09/01 11:31:39;;;;;;;5.20;1.30;;;24.20;92.00;;;;;;5056629;28;20029;-73
2023/09/01 11:34:05;;;;;;;4.10;1.40;;;24.30;92.30;;;;;;5038552;28;20128;-73
2023/09/01 11:36:31;;;;;;;3.67;1.40;;;24.30;92.40;;;;;;5056494;28;20025;-73
2023/09/01 11:38:57;;;;;;;4.82;1.77;;;24.40;92.10;;;;;;5053896;28;20033;-74
2023/09/01 11:41:24;;;;;;;3.60;1.17;;;24.50;91.90;;;;;;5053607;28;20029;-74
2023/09/01 11:43:50;;;;;;;2.92;1.35;;;24.60;91.80;;;;;;5053719;28;20033;-74
2023/09/01 11:46:16;;;;;;;5.03;1.40;;;24.70;91.60;;;;;;5056024;28;20171;-74
2023/09/01 11:48:46;;;;;;;4.07;1.48;;;24.80;91.40;;;;;;5054975;28;20036;-74
2023/09/01 11:51:12;;;;;;;4.43;1.40;;;24.80;90.40;;;;;;5038133;28;20041;-74
2023/09/01 11:53:38;;;;;;;6.35;1.50;;;24.80;90.70;;;;;;5055605;28;20029;-73
2023/09/01 11:56:22;;;;;;;7.90;1.80;;;24.80;90.80;;;;;;5055685;28;20033;-73
2023/09/01 11:58:49;;;;;;;5.20;1.55;;;24.80;91.00;;;;;;5055498;28;20037;-73
2023/09/01 12:01:17;;;;;;;4.45;0.93;;;24.80;91.10;;;;;;5055630;28;20481;-73
2023/09/01 12:03:51;;;;;;;2.85;1.27;;;24.80;91.20;;;;;;5055758;28;20052;-72
2023/09/01 12:06:18;;;;;;;4.80;1.15;;;24.80;91.30;;;;;;5055678;28;20053;-73
2023/09/01 12:08:48;;;;;;;4.63;1.17;;;24.70;91.60;;;;;;5037393;28;20473;-72
2023/09/01 12:11:14;;;;;;;1.90;1.10;;;24.70;91.70;;;;;;5055402;28;20033;-72
2023/09/01 12:13:43;;;;;;;2.55;1.00;;;24.60;91.60;;;;;;5055528;28;20405;-72
2023/09/01 12:16:20;;;;;;;6.93;1.40;;;24.50;91.50;;;;;;5054844;28;20469;-72
2023/09/01 12:18:45;;;;;;;2.33;1.17;;;24.50;91.80;;;;;;5036749;28;20083;-72
2023/09/01 12:21:11;;;;;;;3.33;1.70;;;24.40;92.00;;;;;;5055370;28;20477;-72
2023/09/01 12:23:45;;;;;;;3.00;1.27;;;24.40;91.80;;;;;;5055279;28;20041;-72
2023/09/01 12:26:12;;;;;;;4.05;1.15;;;24.30;91.90;;;;;;5055292;28;20401;-73
2023/09/01 12:28:40;;;;;;;3.10;1.15;;;24.30;92.00;;;;;;5054091;28;20105;-74
2023/09/01 12:31:07;;;;;;;6.28;1.13;;;24.40;92.40;;;;;;5045525;28;20051;-72
2023/09/01 12:33:34;;;;;;;7.93;1.60;;;24.50;92.30;;;;;;5061029;28;20112;-73
2023/09/01 12:36:00;;;;;;;3.70;1.02;;;24.70;92.20;;;;;;5039761;28;20098;-73
2023/09/01 12:38:26;;;;;;;3.70;1.20;;;24.70;91.90;;;;;;5055222;28;20029;-73
2023/09/01 12:40:53;;;;;;;3.58;1.30;;;24.80;91.70;;;;;;5054839;28;20072;-73
2023/09/01 12:43:20;;;;;;;4.15;1.20;;;24.90;91.40;;;;;;5055148;28;20055;-74
2023/09/01 12:45:46;;;;;;;5.72;1.10;;;25.00;90.90;;;;;;5054906;28;20044;-74
2023/09/01 12:48:14;;;;;;;4.53;1.40;;;25.00;89.20;;;;;;5054570;28;20044;-73